createdAt,value
2019-01-21T00:00:16.468Z,22.83
2019-01-21T00:02:44.821Z,15.93
2019-01-21T00:05:13.082Z,16.40
2019-01-21T00:07:41.391Z,27.03
2019-01-21T00:10:09.709Z,19.73
2019-01-21T00:12:38.034Z,16.87
2019-01-21T00:15:08.227Z,20.63
2019-01-21T00:17:36.520Z,14.73
2019-01-21T00:20:06.381Z,16.77
2019-01-21T00:22:34.643Z,24.37
2019-01-21T00:25:02.935Z,25.00
2019-01-21T00:27:31.199Z,19.30
2019-01-21T00:29:59.493Z,18.57
2019-01-21T00:32:27.767Z,16.93
2019-01-21T00:34:56.128Z,19.90
2019-01-21T00:37:24.377Z,26.03
2019-01-21T00:39:52.707Z,20.70
2019-01-21T00:42:20.989Z,20.77
2019-01-21T00:44:49.283Z,26.37
2019-01-21T00:47:17.549Z,22.67
2019-01-21T00:49:45.843Z,19.47
2019-01-21T00:52:14.102Z,18.07
2019-01-21T00:54:42.409Z,18.27
2019-01-21T00:57:10.680Z,20.33
2019-01-21T00:59:38.979Z,15.93
2019-01-21T01:02:07.233Z,14.53
2019-01-21T01:04:35.528Z,18.93
2019-01-21T01:07:03.802Z,13.23
2019-01-21T01:09:32.056Z,14.83
2019-01-21T01:12:00.361Z,14.17
2019-01-21T01:14:28.654Z,15.60
2019-01-21T01:16:56.989Z,15.33
2019-01-21T01:19:25.259Z,15.30
2019-01-21T01:21:53.624Z,14.90
2019-01-21T01:24:21.888Z,15.53
2019-01-21T01:26:50.183Z,15.80
2019-01-21T01:29:18.468Z,15.50
2019-01-21T01:31:46.742Z,12.80
2019-01-21T01:34:15.014Z,12.47
2019-01-21T01:36:43.314Z,15.67
2019-01-21T01:39:11.587Z,15.93
2019-01-21T01:41:39.887Z,16.50
2019-01-21T01:44:08.224Z,13.23
2019-01-21T01:46:36.609Z,15.47
2019-01-21T01:49:04.867Z,15.53
2019-01-21T01:51:33.161Z,16.47
2019-01-21T01:54:01.447Z,13.43
2019-01-21T01:56:29.809Z,13.00
2019-01-21T01:58:58.093Z,12.63
2019-01-21T02:01:26.558Z,13.17
2019-01-21T02:03:54.839Z,14.20
2019-01-21T02:06:23.157Z,15.98
2019-01-21T02:08:51.418Z,13.03
2019-01-21T02:11:19.682Z,9.67
2019-01-21T02:13:47.964Z,17.83
2019-01-21T02:16:16.259Z,15.90
2019-01-21T02:18:44.558Z,15.90
2019-01-21T02:21:12.839Z,15.20
2019-01-21T02:23:41.136Z,15.23
2019-01-21T02:26:10.082Z,15.83
2019-01-21T02:28:50.639Z,13.40
2019-01-21T02:31:40.217Z,13.15
2019-01-21T02:34:29.882Z,15.60
2019-01-21T02:37:10.384Z,15.20
2019-01-21T02:39:44.764Z,12.87
2019-01-21T02:42:16.472Z,13.85
2019-01-21T02:44:48.021Z,15.03
2019-01-21T02:47:22.492Z,11.57
2019-01-21T02:49:56.665Z,14.07
2019-01-21T02:52:31.442Z,14.03
2019-01-21T02:55:03.007Z,14.70
2019-01-21T02:57:34.604Z,13.00
2019-01-21T03:00:21.014Z,13.53
2019-01-21T03:03:12.157Z,11.73
2019-01-21T03:06:01.779Z,15.23
2019-01-21T03:08:45.302Z,17.87
2019-01-21T03:11:22.573Z,16.17
2019-01-21T03:13:56.883Z,13.10
2019-01-21T03:16:59.704Z,14.00
2019-01-21T03:19:36.905Z,12.30
2019-01-21T03:22:24.817Z,16.05
2019-01-21T03:24:58.957Z,13.67
2019-01-21T03:27:36.389Z,14.57
2019-01-21T03:30:40.866Z,14.23
2019-01-21T03:33:26.727Z,15.78
2019-01-21T03:36:21.568Z,17.82
2019-01-21T03:39:05.164Z,16.70
2019-01-21T03:41:39.730Z,15.17
2019-01-21T03:44:13.890Z,14.23
2019-01-21T03:47:16.629Z,15.17
2019-01-21T03:50:16.732Z,10.55
2019-01-21T03:53:09.358Z,11.93
2019-01-21T03:55:37.693Z,16.25
2019-01-21T03:58:15.381Z,14.85
2019-01-21T04:00:49.639Z,16.70
2019-01-21T04:03:40.310Z,13.68
2019-01-21T04:06:14.753Z,13.30
2019-01-21T04:08:55.108Z,15.03
2019-01-21T04:11:32.213Z,16.07
2019-01-21T04:14:36.602Z,13.22
2019-01-21T04:17:25.793Z,17.23
2019-01-21T04:20:16.793Z,16.15
2019-01-21T04:23:16.878Z,15.20
2019-01-21T04:26:01.717Z,20.68
2019-01-21T04:28:34.082Z,19.77
2019-01-21T04:31:26.272Z,16.45
2019-01-21T04:34:00.949Z,18.00
2019-01-21T04:36:35.389Z,19.27
2019-01-21T04:39:12.619Z,19.30
2019-01-21T04:41:44.158Z,24.45
2019-01-21T04:44:18.340Z,26.17
2019-01-21T04:46:58.903Z,26.20
2019-01-21T04:49:39.186Z,29.02
2019-01-21T04:52:22.874Z,25.48
2019-01-21T04:54:57.642Z,24.60
2019-01-21T04:57:35.190Z,24.37
2019-01-21T05:00:06.846Z,23.15
2019-01-21T05:02:54.573Z,24.63
2019-01-21T05:05:44.104Z,19.20
2019-01-21T05:08:32.083Z,19.77
2019-01-21T05:11:21.695Z,19.92
2019-01-21T05:13:59.074Z,19.42
2019-01-21T05:16:42.449Z,22.77
2019-01-21T05:19:13.999Z,23.75
2019-01-21T05:21:51.452Z,19.92
2019-01-21T05:24:42.657Z,22.05
2019-01-21T05:27:20.039Z,21.40
2019-01-21T05:29:57.289Z,23.40
2019-01-21T05:32:37.478Z,22.87
2019-01-21T05:35:14.853Z,19.42
2019-01-21T05:38:01.289Z,16.17
2019-01-21T05:40:44.033Z,19.23
2019-01-21T05:43:21.419Z,21.65
2019-01-21T05:45:55.620Z,19.05
2019-01-21T05:48:54.282Z,22.35
2019-01-21T05:51:51.139Z,18.20
2019-01-21T05:54:28.412Z,19.40
2019-01-21T05:57:11.683Z,23.27
2019-01-21T05:59:58.263Z,22.58
2019-01-21T06:02:50.250Z,19.67
2019-01-21T06:05:33.784Z,20.82
2019-01-21T06:08:17.237Z,17.55
2019-01-21T06:10:54.488Z,16.80
2019-01-21T06:13:31.259Z,22.50
2019-01-21T06:16:14.652Z,23.15
2019-01-21T06:18:48.883Z,21.60
2019-01-21T06:21:28.925Z,17.67
2019-01-21T06:24:03.367Z,20.85
2019-01-21T06:26:54.044Z,16.97
2019-01-21T06:29:43.311Z,20.85
2019-01-21T06:32:26.475Z,18.05
2019-01-21T06:35:00.638Z,25.08
2019-01-21T06:37:49.837Z,23.47
2019-01-21T06:40:33.202Z,24.00
2019-01-21T06:43:28.852Z,21.90
2019-01-21T06:46:17.048Z,17.75
2019-01-21T06:49:18.767Z,19.40
2019-01-21T06:51:58.923Z,20.88
2019-01-21T06:54:46.923Z,22.45
2019-01-21T06:57:43.938Z,21.55
2019-01-21T07:00:21.117Z,22.13
2019-01-21T07:03:07.577Z,21.97
2019-01-21T07:05:59.729Z,21.50
2019-01-21T07:08:49.122Z,26.48
2019-01-21T07:11:23.553Z,20.77
2019-01-21T07:14:00.723Z,37.45
2019-01-21T07:16:47.278Z,26.45
2019-01-21T07:19:41.061Z,26.27
2019-01-21T07:22:12.627Z,21.20
2019-01-21T07:24:49.729Z,25.55
2019-01-21T07:27:21.288Z,19.62
2019-01-21T07:30:04.524Z,25.02
2019-01-21T07:32:55.591Z,23.38
2019-01-21T07:35:42.006Z,26.52
2019-01-21T07:38:16.187Z,23.42
2019-01-21T07:41:02.663Z,25.40
2019-01-21T07:43:39.834Z,25.88
2019-01-21T07:46:20.397Z,29.10
2019-01-21T07:49:03.911Z,40.52
2019-01-21T07:51:59.198Z,45.48
2019-01-21T07:54:30.824Z,34.33
2019-01-21T07:57:02.357Z,35.30
2019-01-21T07:59:51.873Z,37.27
2019-01-21T08:02:51.699Z,36.50
2019-01-21T08:05:35.160Z,35.50
2019-01-21T08:08:30.330Z,25.02
2019-01-21T08:11:13.577Z,25.50
2019-01-21T08:13:57.010Z,24.75
2019-01-21T08:16:50.968Z,20.37
2019-01-21T08:19:34.588Z,27.20
2019-01-21T08:22:14.863Z,23.10
2019-01-21T08:24:58.384Z,23.25
2019-01-21T08:27:29.904Z,24.80
2019-01-21T08:30:16.047Z,21.23
2019-01-21T08:32:56.422Z,22.62
2019-01-21T08:35:45.923Z,31.97
2019-01-21T08:38:20.487Z,26.50
2019-01-21T08:40:58.156Z,22.83
2019-01-21T08:43:32.678Z,21.23
2019-01-21T08:46:16.121Z,21.07
2019-01-21T08:49:02.533Z,77.97
2019-01-21T08:51:34.129Z,51.43
2019-01-21T08:54:11.519Z,45.70
2019-01-21T08:56:51.894Z,34.23
2019-01-21T08:59:35.487Z,38.70
2019-01-21T09:02:24.771Z,37.90
2019-01-21T09:04:58.957Z,33.07
2019-01-21T09:07:48.519Z,25.60
2019-01-21T09:10:31.803Z,25.37
2019-01-21T09:13:22.792Z,31.80
2019-01-21T09:16:02.962Z,32.17
2019-01-21T09:18:48.997Z,28.73
2019-01-21T09:21:23.208Z,27.30
2019-01-21T09:24:12.119Z,21.80
2019-01-21T09:26:55.453Z,22.80
2019-01-21T09:29:46.268Z,28.37
2019-01-21T09:32:33.869Z,26.40
2019-01-21T09:35:17.048Z,28.03
2019-01-21T09:37:48.643Z,24.00
2019-01-21T09:40:23.004Z,22.20
2019-01-21T09:42:57.388Z,19.20
2019-01-21T09:45:37.823Z,20.40
2019-01-21T09:48:05.209Z,24.03
2019-01-21T09:50:33.506Z,21.57
2019-01-21T09:53:01.847Z,21.70
2019-01-21T09:55:30.203Z,23.00
2019-01-21T09:58:01.736Z,21.07
2019-01-21T10:00:30.033Z,17.80
2019-01-21T10:02:58.291Z,16.83
2019-01-21T10:05:27.343Z,17.43
2019-01-21T10:08:01.855Z,22.63
2019-01-21T10:10:36.002Z,21.33
2019-01-21T10:13:22.308Z,17.83
2019-01-21T10:16:10.273Z,17.40
2019-01-21T10:18:59.628Z,22.27
2019-01-21T10:21:39.946Z,22.27
2019-01-21T10:24:46.183Z,21.80
2019-01-21T10:27:23.436Z,19.63
2019-01-21T10:30:03.753Z,20.90
2019-01-21T10:32:47.281Z,29.97
2019-01-21T10:35:44.341Z,23.50
2019-01-21T10:38:42.862Z,21.77
2019-01-21T10:41:14.424Z,23.83
2019-01-21T10:43:57.784Z,19.07
2019-01-21T10:46:41.001Z,24.17
2019-01-21T10:49:27.467Z,18.97
2019-01-21T10:52:11.127Z,16.97
2019-01-21T10:54:54.333Z,18.20
2019-01-21T10:57:43.513Z,17.63
2019-01-21T11:00:29.908Z,19.40
2019-01-21T11:03:09.669Z,19.13
2019-01-21T11:05:44.185Z,14.70
2019-01-21T11:08:24.679Z,15.50
2019-01-21T11:11:04.683Z,15.47
2019-01-21T11:13:56.932Z,16.70
2019-01-21T11:16:47.679Z,13.73
2019-01-21T11:19:41.707Z,14.30
2019-01-21T11:22:12.384Z,13.43
2019-01-21T11:25:00.369Z,16.10
2019-01-21T11:27:31.943Z,14.30
2019-01-21T11:30:09.094Z,16.83
2019-01-21T11:32:56.877Z,18.53
2019-01-21T11:35:34.354Z,18.90
2019-01-21T11:38:05.878Z,14.10
2019-01-21T11:40:39.981Z,14.77
2019-01-21T11:43:23.357Z,62.83
2019-01-21T11:46:17.195Z,31.73
2019-01-21T11:49:15.574Z,17.93
2019-01-21T11:51:52.639Z,20.93
2019-01-21T11:54:32.699Z,20.97
2019-01-21T11:57:04.258Z,19.70
2019-01-21T11:59:41.349Z,22.83
2019-01-21T12:02:27.777Z,31.17
2019-01-21T12:05:21.422Z,21.13
2019-01-21T12:08:04.829Z,19.77
2019-01-21T12:10:48.433Z,18.37
2019-01-21T12:13:28.152Z,28.20
2019-01-21T12:16:17.892Z,17.47
2019-01-21T12:18:55.438Z,18.00
2019-01-21T12:21:49.227Z,12.43
2019-01-21T12:24:19.671Z,19.73
2019-01-21T12:27:00.228Z,20.60
2019-01-21T12:30:00.181Z,15.37
2019-01-21T12:32:31.756Z,14.47
2019-01-21T12:35:16.244Z,15.40
2019-01-21T12:38:04.319Z,15.43
2019-01-21T12:40:52.086Z,13.03
2019-01-21T12:43:32.438Z,12.70
2019-01-21T12:46:06.882Z,25.40
2019-01-21T12:48:41.224Z,12.20
2019-01-21T12:51:27.633Z,12.47
2019-01-21T12:54:08.073Z,22.23
2019-01-21T12:57:14.002Z,12.43
2019-01-21T13:00:00.225Z,21.07
2019-01-21T13:02:34.293Z,16.20
2019-01-21T13:05:20.456Z,15.07
2019-01-21T13:07:57.733Z,16.13
2019-01-21T13:10:29.313Z,14.93
2019-01-21T13:13:18.363Z,18.83
2019-01-21T13:15:55.952Z,11.07
2019-01-21T13:18:27.504Z,15.53
2019-01-21T13:21:25.847Z,27.60
2019-01-21T13:24:12.456Z,21.67
2019-01-21T13:26:46.722Z,28.50
2019-01-21T13:29:20.816Z,12.40
2019-01-21T13:31:58.058Z,20.30
2019-01-21T13:34:35.124Z,19.20
2019-01-21T13:37:18.278Z,17.97
2019-01-21T13:40:10.457Z,14.23
2019-01-21T13:42:47.652Z,11.90
2019-01-21T13:45:35.432Z,14.33
2019-01-21T13:48:09.676Z,15.93
2019-01-21T13:50:50.167Z,22.43
2019-01-21T13:53:47.255Z,18.00
2019-01-21T13:56:43.941Z,17.73
2019-01-21T13:59:29.629Z,22.53
2019-01-21T14:02:13.043Z,16.33
2019-01-21T14:04:50.168Z,13.30
2019-01-21T14:07:44.143Z,14.40
2019-01-21T14:10:45.458Z,15.00
2019-01-21T14:13:26.366Z,22.80
2019-01-21T14:16:07.714Z,18.87
2019-01-21T14:18:42.154Z,23.90
2019-01-21T14:21:19.586Z,23.43
2019-01-21T14:24:24.044Z,24.40
2019-01-21T14:27:01.298Z,48.33
2019-01-21T14:29:44.466Z,36.77
2019-01-21T14:32:30.417Z,45.10
2019-01-21T14:35:04.674Z,34.10
2019-01-21T14:37:52.486Z,21.63
2019-01-21T14:40:29.955Z,17.73
2019-01-21T14:43:33.042Z,20.60
2019-01-21T14:46:15.877Z,20.67
2019-01-21T14:49:04.866Z,19.27
2019-01-21T14:52:03.937Z,25.10
2019-01-21T14:54:41.005Z,23.87
2019-01-21T14:57:24.426Z,19.20
2019-01-21T15:00:30.305Z,18.33
2019-01-21T15:03:07.869Z,31.20
2019-01-21T15:06:12.521Z,17.40
2019-01-21T15:08:44.147Z,21.27
2019-01-21T15:11:31.864Z,31.97
2019-01-21T15:14:03.570Z,19.83
2019-01-21T15:16:37.922Z,19.53
2019-01-21T15:19:21.346Z,26.43
2019-01-21T15:22:02.046Z,31.87
2019-01-21T15:24:36.610Z,22.20
2019-01-21T15:27:27.341Z,18.93
2019-01-21T15:29:58.897Z,30.50
2019-01-21T15:32:36.335Z,27.87
2019-01-21T15:35:20.473Z,22.40
2019-01-21T15:37:58.717Z,20.20
2019-01-21T15:40:38.938Z,25.00
2019-01-21T15:43:16.213Z,14.87
2019-01-21T15:45:52.045Z,17.33
2019-01-21T15:48:23.646Z,19.50
2019-01-21T15:51:04.795Z,18.00
2019-01-21T15:53:36.798Z,20.23
2019-01-21T15:56:30.623Z,17.97
2019-01-21T15:59:21.539Z,19.47
2019-01-21T16:02:24.541Z,21.97
2019-01-21T16:05:14.223Z,23.17
2019-01-21T16:07:45.813Z,19.43
2019-01-21T16:10:35.343Z,19.13
2019-01-21T16:13:18.827Z,22.67
2019-01-21T16:15:50.399Z,21.37
2019-01-21T16:18:30.745Z,27.07
2019-01-21T16:21:21.732Z,21.37
2019-01-21T16:24:02.075Z,19.80
2019-01-21T22:26:40.770Z,31.27
2019-01-21T22:29:09.173Z,33.27
2019-01-21T22:31:37.549Z,26.53
2019-01-21T22:34:05.941Z,29.60
2019-01-21T22:36:34.247Z,29.10
2019-01-21T22:39:02.761Z,25.40
2019-01-21T22:41:31.123Z,21.20
2019-01-21T22:43:59.418Z,24.97
2019-01-21T22:46:27.768Z,24.90
2019-01-21T22:48:56.138Z,22.97
2019-01-21T22:51:24.409Z,25.47
2019-01-21T22:53:52.871Z,22.10
2019-01-21T22:56:21.231Z,25.63
2019-01-21T22:58:49.554Z,24.40
2019-01-21T23:01:21.107Z,24.07
2019-01-21T23:03:50.371Z,23.47
2019-01-21T23:06:18.648Z,24.77
2019-01-21T23:08:46.946Z,24.30
2019-01-21T23:11:15.303Z,22.10
2019-01-21T23:13:43.706Z,23.97
2019-01-21T23:16:11.981Z,24.67
2019-01-21T23:18:40.276Z,26.57
2019-01-21T23:21:08.557Z,21.83
2019-01-21T23:23:36.987Z,22.30
2019-01-21T23:26:05.343Z,20.37
2019-01-21T23:28:33.758Z,24.43
2019-01-21T23:31:02.429Z,23.50
2019-01-21T23:33:30.752Z,22.60
2019-01-21T23:35:59.117Z,23.60
2019-01-21T23:38:27.477Z,22.90
2019-01-21T23:40:55.762Z,26.90
2019-01-21T23:43:24.097Z,21.33
2019-01-21T23:45:52.552Z,20.63
2019-01-21T23:48:20.976Z,20.60
2019-01-21T23:50:49.317Z,24.13
2019-01-21T23:53:17.667Z,23.83
2019-01-21T23:55:45.968Z,27.17
2019-01-21T23:58:14.373Z,26.73
